TAF LFMH
METAR LFMH
LFMH 090800Z AUTO 35004KT 310V020 9999 FEW035 OVC052 03/M00 Q1011=
LFMH 090730Z AUTO 00000KT 9999 BKN045 OVC054 02/M00 Q1011=
LFMH 090700Z AUTO VRB03KT 9999 BKN042 OVC054 02/M00 Q1010=
LFMH 090630Z AUTO 29003KT 9999 OVC045 03/00 Q1010=
LFMH 090600Z AUTO 36005KT 320V030 9999 FEW026 OVC047 03/00 Q1010=
WC LFMH
WS LFMH
WV LFMH